メインページ
METAR-TAF:

METAR-TAF

空港 :

ジュネーヴ空港

ジュネーヴ, スイス

緯度: 46-15N, 経度: 006-08E, 海抜: 420m

現時点の気象観測

当レポートは13分前の05:50(UTC)に作成
変向風 1kt
気温 1°C
湿度 80%
気圧 1021 hPa
視程10km以上
1,500メートル以下は雲なし、積乱雲なし

METAR: LSGG 040550Z VRB01KT CAVOK 01/M02 Q1021 NOSIG

時間: 08:03 (06:03 UTC)

予報

当レポートは38分前の05:25(UTC)に作成
予報は04日の 06時(UTC)から 05日の 12時(UTC)まで有効
北東の風 5kt
視程10km以上
1,500メートル以下は雲なし、積乱雲なし
04日の 10時(UTC)から 04日の 18時(UTC)まで一時的に
北東の風 7kt

TAF: LSGG 040525Z 0406/0512 05005KT CAVOK TX16/0415Z TN02/0406Z TN01/0505Z TEMPO 0410/0418 04007KT

4,000以上の空港の気象観測と天気予報(METAR報とTAF報)

利用可能な観測所は地図上に黄色い丸と赤い丸で示す。

丸の上にカーソルを重ねると観測所名を参照できる。

次にクリックすると気象観測と天気予報を参照できる。

マップの切り替え:黒色「×」印の緑ボタンをクリックして拡大、「-」印の緑ボタンをクリックして縮小、緑色の三角印をクリックして隣りの地図に切り替え


METAR-TAF: